createdAt,value
2016-08-08T00:00:02.600Z,0
2016-08-08T00:01:15.568Z,0
2016-08-08T00:02:28.538Z,0
2016-08-08T00:03:41.509Z,0
2016-08-08T00:04:54.488Z,0
2016-08-08T00:06:07.464Z,0
2016-08-08T00:07:20.440Z,0
2016-08-08T00:08:33.613Z,0
2016-08-08T00:09:46.585Z,0
2016-08-08T00:10:59.568Z,0
2016-08-08T00:12:12.548Z,0
2016-08-08T00:13:25.531Z,0
2016-08-08T00:14:38.710Z,0
2016-08-08T00:15:51.894Z,0
2016-08-08T00:17:04.874Z,0
2016-08-08T00:18:17.850Z,0
2016-08-08T00:19:31.031Z,0
2016-08-08T00:20:44.007Z,0
2016-08-08T00:21:57.195Z,0
2016-08-08T00:23:10.174Z,0
2016-08-08T00:24:23.144Z,0
2016-08-08T00:25:36.320Z,0
2016-08-08T00:26:47.903Z,0
2016-08-08T00:28:00.872Z,0
2016-08-08T00:29:13.836Z,0
2016-08-08T00:30:26.806Z,0
2016-08-08T00:31:39.778Z,0
2016-08-08T00:32:52.753Z,0
2016-08-08T00:34:05.922Z,0
2016-08-08T00:35:18.896Z,0
2016-08-08T00:36:32.266Z,0
2016-08-08T00:37:45.256Z,0
2016-08-08T00:38:58.434Z,0
2016-08-08T00:40:11.406Z,0
2016-08-08T00:41:24.370Z,0
2016-08-08T00:42:37.346Z,0
2016-08-08T00:43:50.324Z,0
2016-08-08T00:45:03.304Z,0
2016-08-08T00:46:16.290Z,0
2016-08-08T00:47:29.256Z,0
2016-08-08T00:48:42.240Z,0
2016-08-08T00:49:55.211Z,0
2016-08-08T00:51:08.185Z,0
2016-08-08T00:52:21.155Z,0
2016-08-08T00:53:34.131Z,0
2016-08-08T00:54:47.513Z,0
2016-08-08T00:56:00.488Z,0
2016-08-08T00:57:13.461Z,0
2016-08-08T00:58:26.442Z,0
2016-08-08T00:59:39.418Z,0
2016-08-08T01:00:52.395Z,0
2016-08-08T01:02:05.581Z,0
2016-08-08T01:03:18.551Z,0
2016-08-08T01:04:31.529Z,0
2016-08-08T01:05:44.510Z,0
2016-08-08T01:06:57.492Z,0
2016-08-08T01:08:10.467Z,0
2016-08-08T01:09:23.447Z,0
2016-08-08T01:10:36.426Z,0
2016-08-08T01:11:48.019Z,0
2016-08-08T01:13:00.994Z,0
2016-08-08T01:14:14.163Z,0
2016-08-08T01:15:27.126Z,0
2016-08-08T01:16:40.105Z,0
2016-08-08T01:17:53.285Z,0
2016-08-08T01:19:06.263Z,0
2016-08-08T01:20:19.248Z,0
2016-08-08T01:21:32.235Z,0
2016-08-08T01:22:45.205Z,0
2016-08-08T01:23:58.189Z,0
2016-08-08T01:25:11.172Z,0
2016-08-08T01:26:24.350Z,0
2016-08-08T01:27:37.528Z,0
2016-08-08T01:28:50.500Z,0
2016-08-08T01:30:03.468Z,0
2016-08-08T01:31:16.445Z,0
2016-08-08T01:32:29.615Z,0
2016-08-08T01:33:42.791Z,0
2016-08-08T01:34:55.768Z,0
2016-08-08T01:36:08.737Z,0
2016-08-08T01:37:21.707Z,0
2016-08-08T01:38:34.688Z,0
2016-08-08T01:39:47.663Z,0
2016-08-08T01:41:00.643Z,0
2016-08-08T01:42:13.618Z,0
2016-08-08T01:43:26.585Z,0
2016-08-08T01:44:39.549Z,0
2016-08-08T01:45:52.528Z,0
2016-08-08T01:47:05.504Z,0
2016-08-08T01:48:18.474Z,0
2016-08-08T01:49:31.445Z,0
2016-08-08T01:50:44.626Z,0
2016-08-08T01:51:57.608Z,0
2016-08-08T01:53:10.794Z,0
2016-08-08T01:54:23.765Z,0
2016-08-08T01:55:36.736Z,0
2016-08-08T01:58:02.428Z,0
2016-08-08T01:59:15.399Z,0
2016-08-08T02:00:28.365Z,0
2016-08-08T02:01:41.343Z,0
2016-08-08T02:02:54.324Z,0
2016-08-08T02:04:07.292Z,0
2016-08-08T02:05:20.265Z,0
2016-08-08T02:06:33.234Z,0
2016-08-08T02:07:46.215Z,0
2016-08-08T02:08:59.189Z,0
2016-08-08T02:10:12.158Z,0
2016-08-08T02:11:25.136Z,0
2016-08-08T02:12:38.302Z,0
2016-08-08T02:13:51.281Z,0
2016-08-08T02:15:04.263Z,0
2016-08-08T02:16:17.248Z,0
2016-08-08T02:17:30.232Z,0
2016-08-08T02:18:43.222Z,0
2016-08-08T02:19:56.202Z,0
2016-08-08T02:21:09.166Z,0
2016-08-08T02:22:22.138Z,0
2016-08-08T02:23:35.112Z,0
2016-08-08T02:24:48.094Z,0
2016-08-08T02:26:01.066Z,0
2016-08-08T02:27:13.578Z,0
2016-08-08T02:28:26.545Z,0
2016-08-08T02:29:39.724Z,0
2016-08-08T02:30:52.699Z,0
2016-08-08T02:32:05.682Z,0
2016-08-08T02:33:18.653Z,0
2016-08-08T02:34:31.827Z,0
2016-08-08T02:35:44.802Z,0
2016-08-08T02:36:57.790Z,0
2016-08-08T02:38:10.753Z,0
2016-08-08T02:39:23.717Z,0
2016-08-08T02:40:36.680Z,0
2016-08-08T02:41:49.651Z,0
2016-08-08T02:43:02.625Z,0
2016-08-08T02:44:15.592Z,0
2016-08-08T02:45:28.589Z,0
2016-08-08T02:46:41.564Z,0
2016-08-08T02:47:54.534Z,0
2016-08-08T02:49:07.520Z,0
2016-08-08T02:50:20.506Z,0
2016-08-08T02:51:33.681Z,0
2016-08-08T02:52:46.655Z,0
2016-08-08T02:53:59.615Z,0
2016-08-08T02:55:12.588Z,0
2016-08-08T02:56:25.763Z,0
2016-08-08T02:57:38.732Z,0
2016-08-08T02:58:51.716Z,0
2016-08-08T03:00:04.699Z,0
2016-08-08T03:01:17.670Z,0
2016-08-08T03:02:30.643Z,0
2016-08-08T03:03:43.622Z,0
2016-08-08T03:04:56.604Z,0
2016-08-08T03:06:09.576Z,0
2016-08-08T03:07:22.543Z,0
2016-08-08T03:08:35.514Z,0
2016-08-08T03:09:48.480Z,0
2016-08-08T03:11:01.453Z,0
2016-08-08T03:13:26.939Z,0
2016-08-08T03:14:39.925Z,0
2016-08-08T03:15:52.909Z,0
2016-08-08T03:17:05.880Z,0
2016-08-08T03:18:18.854Z,0
2016-08-08T03:19:31.820Z,0
2016-08-08T03:20:44.781Z,0
2016-08-08T03:21:57.763Z,0
2016-08-08T03:23:10.729Z,0
2016-08-08T03:24:23.901Z,0
2016-08-08T03:25:36.882Z,0
2016-08-08T03:26:49.850Z,0
2016-08-08T03:28:02.816Z,0
2016-08-08T03:29:15.793Z,0
2016-08-08T03:30:28.996Z,0
2016-08-08T03:31:41.968Z,0
2016-08-08T03:32:54.937Z,0
2016-08-08T03:34:07.915Z,0
2016-08-08T03:35:20.896Z,0
2016-08-08T03:36:34.064Z,0
2016-08-08T03:37:47.037Z,0
2016-08-08T03:39:00.021Z,0
2016-08-08T03:40:13.197Z,0
2016-08-08T03:41:26.173Z,0
2016-08-08T03:42:38.229Z,0
2016-08-08T03:43:51.400Z,0
2016-08-08T03:45:04.393Z,0
2016-08-08T03:46:17.381Z,0
2016-08-08T03:47:30.557Z,0
2016-08-08T03:48:43.744Z,0
2016-08-08T03:49:56.915Z,0
2016-08-08T03:51:10.085Z,0
2016-08-08T03:52:23.261Z,0
2016-08-08T03:53:36.234Z,0
2016-08-08T03:54:49.810Z,0
2016-08-08T03:56:02.779Z,0
2016-08-08T03:57:15.746Z,5
2016-08-08T03:58:28.731Z,5
2016-08-08T03:59:41.704Z,5
2016-08-08T04:00:55.076Z,5
2016-08-08T04:02:08.448Z,5
2016-08-08T04:03:21.429Z,5
2016-08-08T04:04:34.394Z,5
2016-08-08T04:05:47.376Z,5
2016-08-08T04:07:00.350Z,10
2016-08-08T04:08:13.338Z,10
2016-08-08T04:09:26.516Z,10
2016-08-08T04:10:39.485Z,10
2016-08-08T04:11:52.656Z,10
2016-08-08T04:13:05.617Z,15
2016-08-08T04:14:18.589Z,15
2016-08-08T04:15:31.567Z,15
2016-08-08T04:16:44.546Z,15
2016-08-08T04:17:57.522Z,15
2016-08-08T04:19:10.495Z,15
2016-08-08T04:20:23.467Z,20
2016-08-08T04:21:36.443Z,20
2016-08-08T04:22:49.420Z,20
2016-08-08T04:24:02.391Z,20
2016-08-08T04:25:15.363Z,20
2016-08-08T04:26:28.346Z,25
2016-08-08T04:27:40.326Z,25
2016-08-08T04:28:53.299Z,25
2016-08-08T04:30:06.274Z,25
2016-08-08T04:31:19.247Z,30
2016-08-08T04:32:32.232Z,30
2016-08-08T04:33:45.208Z,35
2016-08-08T04:34:58.186Z,35
2016-08-08T04:36:11.402Z,35
2016-08-08T04:37:24.366Z,35
2016-08-08T04:38:37.329Z,35
2016-08-08T04:39:50.305Z,40
2016-08-08T04:41:03.285Z,40
2016-08-08T04:42:16.256Z,40
2016-08-08T04:43:29.235Z,40
2016-08-08T04:44:42.212Z,45
2016-08-08T04:45:55.186Z,45
2016-08-08T04:47:08.380Z,50
2016-08-08T04:48:21.342Z,45
2016-08-08T04:49:34.321Z,40
2016-08-08T04:50:47.287Z,35
2016-08-08T04:52:00.264Z,35
2016-08-08T04:53:13.440Z,35
2016-08-08T04:54:26.412Z,40
2016-08-08T04:55:39.374Z,55
2016-08-08T04:56:52.352Z,65
2016-08-08T04:58:05.325Z,70
2016-08-08T04:59:18.297Z,80
2016-08-08T05:00:31.273Z,90
2016-08-08T05:01:44.246Z,150
2016-08-08T05:02:57.215Z,160
2016-08-08T05:04:10.386Z,105
2016-08-08T05:05:23.555Z,100
2016-08-08T05:06:36.536Z,110
2016-08-08T05:07:49.526Z,120
2016-08-08T05:09:02.505Z,105
2016-08-08T05:10:15.685Z,90
2016-08-08T05:11:28.658Z,65
2016-08-08T05:12:39.785Z,55
2016-08-08T05:13:52.755Z,60
2016-08-08T05:15:05.731Z,60
2016-08-08T05:16:18.698Z,70
2016-08-08T05:17:31.673Z,70
2016-08-08T05:18:44.649Z,85
2016-08-08T05:19:57.620Z,95
2016-08-08T05:21:10.607Z,95
2016-08-08T05:22:23.578Z,85
2016-08-08T05:23:36.761Z,85
2016-08-08T05:24:49.732Z,105
2016-08-08T05:26:02.714Z,120
2016-08-08T05:27:15.885Z,120
2016-08-08T05:28:28.855Z,145
2016-08-08T05:29:41.828Z,140
2016-08-08T05:30:54.994Z,120
2016-08-08T05:32:07.966Z,120
2016-08-08T05:33:21.141Z,120
2016-08-08T05:34:34.117Z,115
2016-08-08T05:35:47.286Z,105
2016-08-08T05:37:00.260Z,105
2016-08-08T05:38:13.431Z,115
2016-08-08T05:39:26.605Z,110
2016-08-08T05:40:39.579Z,125
2016-08-08T05:41:52.551Z,155
2016-08-08T05:43:05.744Z,180
2016-08-08T05:44:18.923Z,225
2016-08-08T05:45:31.897Z,130
2016-08-08T05:46:44.866Z,115
2016-08-08T05:47:57.839Z,120
2016-08-08T05:49:10.821Z,140
2016-08-08T05:50:23.792Z,130
2016-08-08T05:51:36.763Z,135
2016-08-08T05:52:49.736Z,175
2016-08-08T05:54:02.713Z,175
2016-08-08T05:55:15.678Z,140
2016-08-08T05:56:28.655Z,155
2016-08-08T05:57:41.627Z,150
2016-08-08T05:58:54.608Z,155
2016-08-08T06:00:07.579Z,150
2016-08-08T06:01:20.756Z,120
2016-08-08T06:02:33.726Z,105
2016-08-08T06:03:46.697Z,85
2016-08-08T06:04:59.669Z,80
2016-08-08T06:06:12.635Z,100
2016-08-08T06:07:25.610Z,100
2016-08-08T06:08:38.575Z,85
2016-08-08T06:09:51.555Z,75
2016-08-08T06:11:04.577Z,75
2016-08-08T06:12:17.567Z,90
2016-08-08T06:13:30.543Z,120
2016-08-08T06:14:43.534Z,150
2016-08-08T06:15:56.509Z,140
2016-08-08T06:17:09.697Z,125
2016-08-08T06:18:22.673Z,125
2016-08-08T06:19:35.647Z,145
2016-08-08T06:20:48.627Z,110
2016-08-08T06:22:01.600Z,90
2016-08-08T06:23:14.564Z,85
2016-08-08T06:24:27.758Z,90
2016-08-08T06:25:40.725Z,100
2016-08-08T06:26:53.695Z,95
2016-08-08T06:28:05.739Z,85
2016-08-08T06:29:18.710Z,80
2016-08-08T06:30:31.683Z,85
2016-08-08T06:31:44.857Z,85
2016-08-08T06:32:57.849Z,80
2016-08-08T06:34:10.828Z,65
2016-08-08T06:35:23.810Z,65
2016-08-08T06:36:36.774Z,65
2016-08-08T06:37:49.732Z,55
2016-08-08T06:39:02.708Z,55
2016-08-08T06:40:15.676Z,55
2016-08-08T06:41:28.635Z,55
2016-08-08T06:42:41.614Z,55
2016-08-08T06:43:54.782Z,50
2016-08-08T06:45:07.755Z,45
2016-08-08T06:46:20.741Z,45
2016-08-08T06:47:33.725Z,45
2016-08-08T06:48:46.687Z,50
2016-08-08T06:49:59.663Z,55
2016-08-08T06:51:12.638Z,50
2016-08-08T06:52:25.609Z,50
2016-08-08T06:53:38.584Z,50
2016-08-08T06:54:51.557Z,55
2016-08-08T06:56:04.523Z,75
2016-08-08T06:57:17.519Z,100
2016-08-08T06:58:30.491Z,110
2016-08-08T06:59:43.462Z,125
2016-08-08T07:00:56.643Z,115
2016-08-08T07:02:09.620Z,120
2016-08-08T07:03:22.598Z,115
2016-08-08T07:04:35.768Z,115
2016-08-08T07:05:48.743Z,115
2016-08-08T07:07:01.728Z,120
2016-08-08T07:08:14.699Z,115
2016-08-08T07:09:27.675Z,110
2016-08-08T07:10:40.638Z,115
2016-08-08T07:11:53.617Z,130
2016-08-08T07:14:18.169Z,145
2016-08-08T07:15:31.151Z,145
2016-08-08T07:16:44.137Z,145
2016-08-08T07:17:57.133Z,135
2016-08-08T07:19:10.127Z,130
2016-08-08T07:20:23.319Z,130
2016-08-08T07:21:36.494Z,135
2016-08-08T07:22:49.471Z,155
2016-08-08T07:24:02.644Z,170
2016-08-08T07:25:15.610Z,180
2016-08-08T07:26:28.783Z,185
2016-08-08T07:27:41.770Z,195
2016-08-08T07:28:54.749Z,205
2016-08-08T07:30:07.736Z,225
2016-08-08T07:31:20.704Z,215
2016-08-08T07:32:33.689Z,190
2016-08-08T07:33:46.673Z,175
2016-08-08T07:34:59.646Z,170
2016-08-08T07:36:12.614Z,185
2016-08-08T07:37:25.595Z,180
2016-08-08T07:38:38.768Z,190
2016-08-08T07:39:51.755Z,205
2016-08-08T07:41:04.930Z,205
2016-08-08T07:42:17.906Z,180
2016-08-08T07:43:29.234Z,170
2016-08-08T07:44:42.208Z,175
2016-08-08T07:45:55.180Z,175
2016-08-08T07:47:08.162Z,180
2016-08-08T07:48:21.138Z,160
2016-08-08T07:49:34.118Z,180
2016-08-08T07:50:47.101Z,180
2016-08-08T07:52:00.080Z,175
2016-08-08T07:53:13.053Z,160
2016-08-08T07:54:26.028Z,165
2016-08-08T07:55:39.008Z,165
2016-08-08T07:56:51.979Z,155
2016-08-08T07:58:04.954Z,155
2016-08-08T07:59:17.966Z,155
2016-08-08T08:00:30.949Z,160
2016-08-08T08:01:44.525Z,165
2016-08-08T08:02:57.496Z,160
2016-08-08T08:04:10.475Z,140
2016-08-08T08:05:23.444Z,130
2016-08-08T08:06:36.414Z,115
2016-08-08T08:07:49.393Z,110
2016-08-08T08:09:02.371Z,105
2016-08-08T08:10:15.357Z,115
2016-08-08T08:11:28.332Z,110
2016-08-08T08:12:41.312Z,110
2016-08-08T08:13:54.281Z,100
2016-08-08T08:15:07.472Z,115
2016-08-08T08:16:20.457Z,110
2016-08-08T08:17:33.434Z,110
2016-08-08T08:18:46.610Z,110
2016-08-08T08:19:59.591Z,115
2016-08-08T08:21:12.561Z,140
2016-08-08T08:22:25.539Z,140
2016-08-08T08:23:38.710Z,140
2016-08-08T08:24:51.890Z,150
2016-08-08T08:26:05.014Z,195
2016-08-08T08:27:17.992Z,240
2016-08-08T08:28:29.117Z,240
2016-08-08T08:29:42.285Z,250
2016-08-08T08:30:55.468Z,330
2016-08-08T08:32:08.440Z,295
2016-08-08T08:33:21.414Z,230
2016-08-08T08:34:34.592Z,255
2016-08-08T08:35:47.775Z,200
2016-08-08T08:37:00.753Z,165
2016-08-08T08:38:13.734Z,155
2016-08-08T08:39:26.922Z,140
2016-08-08T08:40:39.909Z,155
2016-08-08T08:41:52.884Z,150
2016-08-08T08:43:05.857Z,150
2016-08-08T08:44:19.237Z,145
2016-08-08T08:45:32.205Z,220
2016-08-08T08:46:45.173Z,245
2016-08-08T08:47:58.152Z,305
2016-08-08T08:49:11.127Z,435
2016-08-08T08:50:24.109Z,410
2016-08-08T08:51:37.083Z,305
2016-08-08T08:52:50.072Z,290
2016-08-08T08:54:03.253Z,280
2016-08-08T08:55:16.223Z,280
2016-08-08T08:56:29.204Z,225
2016-08-08T08:57:42.387Z,195
2016-08-08T08:58:55.371Z,205
2016-08-08T09:00:08.346Z,210
2016-08-08T09:01:21.333Z,190
2016-08-08T09:02:34.310Z,245
2016-08-08T09:03:47.284Z,200
2016-08-08T09:05:00.461Z,200
2016-08-08T09:06:13.446Z,240
2016-08-08T09:07:26.431Z,265
2016-08-08T09:08:39.404Z,295
2016-08-08T09:09:52.585Z,305
2016-08-08T09:11:05.610Z,330
2016-08-08T09:12:18.590Z,350
2016-08-08T09:13:29.717Z,380
2016-08-08T09:14:42.706Z,505
2016-08-08T09:15:55.684Z,650
2016-08-08T09:17:08.666Z,755
2016-08-08T09:18:21.651Z,605
2016-08-08T09:19:34.632Z,480
2016-08-08T09:20:47.614Z,390
2016-08-08T09:22:00.598Z,325
2016-08-08T09:23:13.578Z,310
2016-08-08T09:24:26.558Z,310
2016-08-08T09:25:39.536Z,315
2016-08-08T09:26:52.519Z,305
2016-08-08T09:28:05.493Z,305
2016-08-08T09:29:18.474Z,345
2016-08-08T09:30:31.452Z,435
2016-08-08T09:31:44.440Z,480
2016-08-08T09:32:57.419Z,385
2016-08-08T09:34:10.403Z,300
2016-08-08T09:35:23.388Z,260
2016-08-08T09:36:36.362Z,245
2016-08-08T09:37:49.750Z,275
2016-08-08T09:39:02.725Z,230
2016-08-08T09:40:15.694Z,190
2016-08-08T09:41:28.668Z,190
2016-08-08T09:42:41.645Z,175
2016-08-08T09:43:54.641Z,135
2016-08-08T09:45:07.611Z,100
2016-08-08T09:46:20.800Z,115
2016-08-08T09:47:33.977Z,150
2016-08-08T09:48:46.951Z,175
2016-08-08T09:49:59.923Z,140
2016-08-08T09:51:13.099Z,110
2016-08-08T09:52:26.069Z,105
2016-08-08T09:53:39.047Z,75
2016-08-08T09:54:52.233Z,70
2016-08-08T09:56:05.203Z,100
2016-08-08T09:57:18.170Z,125
2016-08-08T09:59:42.722Z,120
2016-08-08T10:00:55.696Z,105
2016-08-08T10:02:08.672Z,110
2016-08-08T10:03:21.651Z,125
2016-08-08T10:04:34.847Z,140
2016-08-08T10:05:47.821Z,150
2016-08-08T10:07:00.803Z,150
2016-08-08T10:08:13.988Z,160
2016-08-08T10:09:26.962Z,165
2016-08-08T10:10:39.942Z,155
2016-08-08T10:11:52.927Z,155
2016-08-08T10:13:05.905Z,155
2016-08-08T10:14:19.077Z,155
2016-08-08T10:15:32.053Z,175
2016-08-08T10:16:45.028Z,165
2016-08-08T10:17:58.001Z,145
2016-08-08T10:19:10.977Z,130
2016-08-08T10:20:23.960Z,125
2016-08-08T10:21:36.951Z,120
2016-08-08T10:22:49.930Z,115
2016-08-08T10:24:02.914Z,125
2016-08-08T10:25:16.497Z,155
2016-08-08T10:26:29.477Z,160
2016-08-08T10:27:42.673Z,140
2016-08-08T10:28:55.853Z,135
2016-08-08T10:30:09.034Z,140
2016-08-08T10:31:22.017Z,160
2016-08-08T10:32:34.987Z,145
2016-08-08T10:33:47.965Z,120
2016-08-08T10:35:00.963Z,120
2016-08-08T10:36:13.943Z,130
2016-08-08T10:37:26.910Z,105
2016-08-08T10:38:39.882Z,90
2016-08-08T10:39:52.855Z,85
2016-08-08T10:41:05.829Z,80
2016-08-08T10:42:18.816Z,80
2016-08-08T10:44:44.329Z,75
2016-08-08T10:45:57.303Z,75
2016-08-08T10:47:10.488Z,60
2016-08-08T10:48:23.461Z,55
2016-08-08T10:49:36.650Z,70
2016-08-08T10:50:49.619Z,70
2016-08-08T10:52:02.601Z,70
2016-08-08T10:53:15.569Z,75
2016-08-08T10:54:28.564Z,80
2016-08-08T10:55:41.546Z,85
2016-08-08T10:56:54.523Z,110
2016-08-08T10:58:07.492Z,100
2016-08-08T10:59:20.472Z,75
2016-08-08T11:00:33.442Z,70
2016-08-08T11:01:46.437Z,85
2016-08-08T11:02:59.417Z,90
2016-08-08T11:04:12.384Z,80
2016-08-08T11:05:25.377Z,80
2016-08-08T11:06:38.359Z,65
2016-08-08T11:07:51.363Z,50
2016-08-08T11:09:04.335Z,40
2016-08-08T11:10:17.310Z,50
2016-08-08T11:11:30.744Z,65
2016-08-08T11:12:43.719Z,85
2016-08-08T11:15:07.814Z,60
2016-08-08T11:16:20.990Z,70
2016-08-08T11:17:33.985Z,75
2016-08-08T11:18:46.955Z,85
2016-08-08T11:19:59.939Z,75
2016-08-08T11:21:12.906Z,70
2016-08-08T11:22:25.885Z,75
2016-08-08T11:23:38.855Z,65
2016-08-08T11:24:51.832Z,60
2016-08-08T11:26:04.817Z,60
2016-08-08T11:27:17.794Z,60
2016-08-08T11:28:30.771Z,30
2016-08-08T11:29:43.748Z,25
2016-08-08T11:30:56.926Z,40
2016-08-08T11:32:10.304Z,60
2016-08-08T11:33:23.285Z,75
2016-08-08T11:34:36.285Z,80
2016-08-08T11:35:49.256Z,70
2016-08-08T11:37:02.432Z,65
2016-08-08T11:38:15.423Z,70
2016-08-08T11:39:28.404Z,75
2016-08-08T11:40:41.397Z,75
2016-08-08T11:41:54.376Z,90
2016-08-08T11:43:07.349Z,90
2016-08-08T11:44:20.319Z,90
2016-08-08T11:45:33.302Z,100
2016-08-08T11:46:46.273Z,110
2016-08-08T11:47:59.253Z,120
2016-08-08T11:49:12.232Z,130
2016-08-08T11:50:25.203Z,130
2016-08-08T11:51:38.381Z,145
2016-08-08T11:52:51.352Z,145
2016-08-08T11:54:04.332Z,145
2016-08-08T11:55:17.318Z,145
2016-08-08T11:56:30.286Z,140
2016-08-08T11:57:43.455Z,145
2016-08-08T11:58:56.436Z,150
2016-08-08T12:00:09.406Z,150
2016-08-08T12:01:22.576Z,150
2016-08-08T12:02:35.544Z,155
2016-08-08T12:03:48.528Z,160
2016-08-08T12:05:01.509Z,175
2016-08-08T12:06:14.483Z,175
2016-08-08T12:07:27.457Z,165
2016-08-08T12:08:40.424Z,185
2016-08-08T12:09:53.393Z,230
2016-08-08T12:11:06.361Z,230
2016-08-08T12:12:19.538Z,225
2016-08-08T12:13:32.517Z,230
2016-08-08T12:14:45.492Z,225
2016-08-08T12:15:58.473Z,195
2016-08-08T12:17:11.450Z,190
2016-08-08T12:18:24.426Z,195
2016-08-08T12:19:37.406Z,205
2016-08-08T12:20:50.395Z,210
2016-08-08T12:22:03.573Z,215
2016-08-08T12:23:16.541Z,220
2016-08-08T12:24:29.720Z,225
2016-08-08T12:25:42.687Z,240
2016-08-08T12:26:55.668Z,275
2016-08-08T12:28:08.642Z,295
2016-08-08T12:30:32.945Z,340
2016-08-08T12:31:45.919Z,345
2016-08-08T12:32:59.108Z,320
2016-08-08T12:34:12.089Z,295
2016-08-08T12:35:25.087Z,290
2016-08-08T12:36:38.070Z,290
2016-08-08T12:37:51.249Z,275
2016-08-08T12:39:04.232Z,265
2016-08-08T12:40:17.206Z,235
2016-08-08T12:41:30.187Z,210
2016-08-08T12:42:43.157Z,215
2016-08-08T12:43:56.157Z,230
2016-08-08T12:45:09.140Z,250
2016-08-08T12:46:22.321Z,265
2016-08-08T12:47:35.302Z,275
2016-08-08T12:48:48.472Z,290
2016-08-08T12:50:01.466Z,320
2016-08-08T12:51:14.448Z,455
2016-08-08T12:52:27.436Z,650
2016-08-08T12:53:40.414Z,620
2016-08-08T12:54:53.396Z,585
2016-08-08T12:56:06.375Z,440
2016-08-08T12:57:19.552Z,530
2016-08-08T12:58:32.529Z,470
2016-08-08T12:59:45.503Z,475
2016-08-08T13:00:58.480Z,485
2016-08-08T13:02:11.458Z,490
2016-08-08T13:03:24.433Z,490
2016-08-08T13:04:37.415Z,520
2016-08-08T13:05:50.391Z,610
2016-08-08T13:07:03.382Z,660
2016-08-08T13:08:16.354Z,650
2016-08-08T13:09:29.348Z,540
2016-08-08T13:10:42.321Z,645
2016-08-08T13:11:55.723Z,625
2016-08-08T13:13:08.713Z,595
2016-08-08T13:15:33.750Z,460
2016-08-08T13:16:46.927Z,395
2016-08-08T13:17:59.911Z,385
2016-08-08T13:19:13.092Z,375
2016-08-08T13:20:26.078Z,355
2016-08-08T13:21:39.267Z,355
2016-08-08T13:22:52.249Z,345
2016-08-08T13:24:05.223Z,355
2016-08-08T13:25:18.213Z,370
2016-08-08T13:26:31.212Z,385
2016-08-08T13:27:44.387Z,385
2016-08-08T13:28:57.568Z,380
2016-08-08T13:30:10.551Z,405
2016-08-08T13:31:23.745Z,425
2016-08-08T13:32:36.720Z,450
2016-08-08T13:33:49.704Z,460
2016-08-08T13:35:02.684Z,470
2016-08-08T13:36:16.074Z,465
2016-08-08T13:37:29.059Z,545
2016-08-08T13:38:42.040Z,495
2016-08-08T13:39:55.011Z,500
2016-08-08T13:41:07.999Z,405
2016-08-08T13:42:21.586Z,405
2016-08-08T13:43:34.562Z,380
2016-08-08T13:44:47.559Z,470
2016-08-08T13:46:00.535Z,535
2016-08-08T13:47:13.525Z,415
2016-08-08T13:48:26.500Z,365
2016-08-08T13:49:39.688Z,380
2016-08-08T13:50:52.668Z,380
2016-08-08T13:52:05.648Z,470
2016-08-08T13:53:18.630Z,430
2016-08-08T13:54:31.604Z,380
2016-08-08T13:55:44.586Z,490
2016-08-08T13:56:57.570Z,425
2016-08-08T13:58:10.551Z,435
2016-08-08T14:00:35.604Z,395
2016-08-08T14:01:48.585Z,390
2016-08-08T14:03:01.556Z,365
2016-08-08T14:04:14.550Z,345
2016-08-08T14:05:27.735Z,300
2016-08-08T14:06:40.719Z,345
2016-08-08T14:07:53.703Z,340
2016-08-08T14:09:06.685Z,330
2016-08-08T14:10:19.674Z,345
2016-08-08T14:11:32.647Z,340
2016-08-08T14:12:45.631Z,300
2016-08-08T14:13:58.612Z,370
2016-08-08T14:15:11.798Z,390
2016-08-08T14:16:24.783Z,315
2016-08-08T14:17:37.763Z,420
2016-08-08T14:18:50.741Z,370
2016-08-08T14:20:03.927Z,400
2016-08-08T14:21:16.922Z,400
2016-08-08T14:22:29.913Z,235
2016-08-08T14:23:42.886Z,225
2016-08-08T14:24:55.865Z,185
2016-08-08T14:26:09.057Z,160
2016-08-08T14:27:22.042Z,140
2016-08-08T14:28:35.022Z,135
2016-08-08T14:29:48.010Z,150
2016-08-08T14:31:01.003Z,190
2016-08-08T14:32:13.980Z,240
2016-08-08T14:33:26.963Z,310
2016-08-08T14:34:39.947Z,425
2016-08-08T14:35:52.931Z,480
2016-08-08T14:37:05.923Z,610
2016-08-08T14:38:18.906Z,540
2016-08-08T14:39:31.886Z,480
2016-08-08T14:40:44.867Z,440
2016-08-08T14:41:57.850Z,425
2016-08-08T14:43:11.030Z,355
2016-08-08T14:44:24.022Z,355
2016-08-08T14:45:37.211Z,235
2016-08-08T14:46:50.191Z,265
2016-08-08T14:48:03.181Z,220
2016-08-08T14:49:16.363Z,255
2016-08-08T14:50:29.558Z,245
2016-08-08T14:51:42.546Z,220
2016-08-08T14:52:55.538Z,225
2016-08-08T14:54:08.523Z,235
2016-08-08T14:55:21.519Z,240
2016-08-08T14:56:34.511Z,250
2016-08-08T14:57:47.498Z,215
2016-08-08T14:59:00.475Z,215
2016-08-08T15:00:13.862Z,230
2016-08-08T15:01:26.861Z,270
2016-08-08T15:02:40.042Z,250
2016-08-08T15:03:53.016Z,285
2016-08-08T15:05:06.014Z,255
2016-08-08T15:06:18.994Z,245
2016-08-08T15:07:31.976Z,235
2016-08-08T15:08:44.961Z,220
2016-08-08T15:09:57.961Z,200
2016-08-08T15:11:10.949Z,205
2016-08-08T15:12:23.927Z,205
2016-08-08T15:13:36.911Z,210
2016-08-08T15:14:48.500Z,245
2016-08-08T15:16:01.477Z,235
2016-08-08T15:17:14.460Z,215
2016-08-08T15:18:27.440Z,220
2016-08-08T15:19:40.423Z,195
2016-08-08T15:20:53.406Z,190
2016-08-08T15:22:06.379Z,205
2016-08-08T15:23:19.578Z,180
2016-08-08T15:24:32.754Z,240
2016-08-08T15:25:45.734Z,235
2016-08-08T15:26:58.718Z,220
2016-08-08T15:28:11.699Z,185
2016-08-08T15:29:24.704Z,195
2016-08-08T15:30:37.685Z,190
2016-08-08T15:31:50.669Z,160
2016-08-08T15:33:03.640Z,165
2016-08-08T15:34:16.622Z,155
2016-08-08T15:35:29.603Z,185
2016-08-08T15:36:42.590Z,200
2016-08-08T15:37:55.581Z,200
2016-08-08T15:39:08.557Z,190
2016-08-08T15:40:21.529Z,170
2016-08-08T15:41:34.507Z,145
2016-08-08T15:42:47.496Z,160
2016-08-08T15:44:00.478Z,155
2016-08-08T15:45:13.659Z,150
2016-08-08T15:46:26.837Z,150
2016-08-08T15:47:39.871Z,145
2016-08-08T15:48:52.853Z,145
2016-08-08T15:50:06.032Z,125
2016-08-08T15:51:19.008Z,145
2016-08-08T15:52:31.996Z,150
2016-08-08T15:53:44.977Z,145
2016-08-08T15:54:58.157Z,150
2016-08-08T15:56:11.331Z,145
2016-08-08T15:57:24.313Z,155
2016-08-08T15:58:37.491Z,155
2016-08-08T15:59:50.474Z,150
2016-08-08T16:01:03.443Z,150
2016-08-08T16:02:16.439Z,145
2016-08-08T16:03:29.422Z,145
2016-08-08T16:04:42.403Z,140
2016-08-08T16:05:55.396Z,140
2016-08-08T16:07:08.378Z,140
2016-08-08T16:08:21.366Z,140
2016-08-08T16:09:34.342Z,135
2016-08-08T16:10:47.341Z,135
2016-08-08T16:12:00.325Z,130
2016-08-08T16:13:13.307Z,135
2016-08-08T16:14:26.291Z,130
2016-08-08T16:15:39.479Z,130
2016-08-08T16:16:52.456Z,130
2016-08-08T16:18:05.437Z,130
2016-08-08T16:19:18.419Z,130
2016-08-08T16:20:31.402Z,130
2016-08-08T16:21:44.382Z,100
2016-08-08T16:22:57.372Z,125
2016-08-08T16:24:10.541Z,125
2016-08-08T16:25:23.731Z,125
2016-08-08T16:26:36.716Z,125
2016-08-08T16:27:49.711Z,130
2016-08-08T16:29:02.905Z,130
2016-08-08T16:31:27.953Z,130
2016-08-08T16:32:41.127Z,130
2016-08-08T16:33:54.108Z,125
2016-08-08T16:35:07.091Z,125
2016-08-08T16:36:20.073Z,125
2016-08-08T16:37:33.057Z,120
2016-08-08T16:38:46.035Z,125
2016-08-08T16:39:59.016Z,125
2016-08-08T16:41:11.989Z,100
2016-08-08T16:42:24.963Z,95
2016-08-08T16:43:37.941Z,115
2016-08-08T16:44:50.912Z,110
2016-08-08T16:46:04.100Z,105
2016-08-08T16:47:17.305Z,95
2016-08-08T16:48:30.278Z,95
2016-08-08T16:49:43.270Z,100
2016-08-08T16:50:56.245Z,95
2016-08-08T16:52:09.225Z,90
2016-08-08T16:53:22.206Z,90
2016-08-08T16:54:35.187Z,100
2016-08-08T16:55:48.162Z,110
2016-08-08T16:57:01.149Z,115
2016-08-08T16:58:14.123Z,120
2016-08-08T16:59:27.103Z,125
2016-08-08T17:00:39.818Z,130
2016-08-08T17:01:52.806Z,130
2016-08-08T17:03:05.788Z,130
2016-08-08T17:04:18.992Z,130
2016-08-08T17:05:32.175Z,125
2016-08-08T17:06:45.360Z,125
2016-08-08T17:07:58.347Z,115
2016-08-08T17:09:11.319Z,115
2016-08-08T17:10:24.301Z,115
2016-08-08T17:11:37.538Z,110
2016-08-08T17:12:50.779Z,115
2016-08-08T17:14:03.964Z,115
2016-08-08T17:16:29.661Z,120
2016-08-08T17:17:42.638Z,120
2016-08-08T17:18:55.631Z,125
2016-08-08T17:20:08.626Z,120
2016-08-08T17:21:21.609Z,115